sensor_id;sensor_type;location;lat;lon;timestamp;pressure;altitude;pressure_sealevel;temperature;humidity
37064;BME280;23211;53.912;9.138;2022-09-01T00:00:47;102508.50;;;21.35;39.99
37064;BME280;23211;53.912;9.138;2022-09-01T00:03:33;102501.44;;;21.34;39.97
37064;BME280;23211;53.912;9.138;2022-09-01T00:06:22;102509.31;;;21.35;40.12
37064;BME280;23211;53.912;9.138;2022-09-01T00:09:12;102510.13;;;21.36;40.17
37064;BME280;23211;53.912;9.138;2022-09-01T00:11:58;102501.44;;;21.34;40.21
37064;BME280;23211;53.912;9.138;2022-09-01T00:14:44;102503.34;;;21.33;40.08
37064;BME280;23211;53.912;9.138;2022-09-01T00:17:30;102504.44;;;21.32;40.18
37064;BME280;23211;53.912;9.138;2022-09-01T00:20:16;102499.81;;;21.28;40.33
37064;BME280;23211;53.912;9.138;2022-09-01T00:23:02;102496.56;;;21.26;40.30
37064;BME280;23211;53.912;9.138;2022-09-01T00:25:48;102503.66;;;21.21;40.36
37064;BME280;23211;53.912;9.138;2022-09-01T00:28:35;102491.69;;;21.17;40.60
37064;BME280;23211;53.912;9.138;2022-09-01T00:31:23;102494.16;;;21.14;40.53
37064;BME280;23211;53.912;9.138;2022-09-01T00:34:09;102491.19;;;21.10;40.57
37064;BME280;23211;53.912;9.138;2022-09-01T00:36:56;102491.22;;;21.05;40.70
37064;BME280;23211;53.912;9.138;2022-09-01T00:39:41;102493.69;;;21.02;40.63
37064;BME280;23211;53.912;9.138;2022-09-01T00:42:27;102494.25;;;20.99;40.70
37064;BME280;23211;53.912;9.138;2022-09-01T00:45:13;102495.91;;;20.95;40.82
37064;BME280;23211;53.912;9.138;2022-09-01T00:47:59;102499.47;;;20.90;40.94
37064;BME280;23211;53.912;9.138;2022-09-01T00:50:45;102493.25;;;20.84;41.09
37064;BME280;23211;53.912;9.138;2022-09-01T00:53:33;102486.97;;;20.79;40.90
37064;BME280;23211;53.912;9.138;2022-09-01T00:56:19;102485.34;;;20.73;41.04
37064;BME280;23211;53.912;9.138;2022-09-01T00:59:06;102487.00;;;20.69;41.26
37064;BME280;23211;53.912;9.138;2022-09-01T01:01:54;102478.06;;;20.63;41.20
37064;BME280;23211;53.912;9.138;2022-09-01T01:04:40;102477.25;;;20.57;41.34
37064;BME280;23211;53.912;9.138;2022-09-01T01:07:28;102472.09;;;20.51;41.40
37064;BME280;23211;53.912;9.138;2022-09-01T01:10:16;102476.75;;;20.45;41.46
37064;BME280;23211;53.912;9.138;2022-09-01T01:13:12;102474.03;;;20.35;41.65
37064;BME280;23211;53.912;9.138;2022-09-01T01:15:58;102474.88;;;20.31;41.49
37064;BME280;23211;53.912;9.138;2022-09-01T01:18:44;102468.63;;;20.25;41.73
37064;BME280;23211;53.912;9.138;2022-09-01T01:21:41;102471.09;;;20.16;41.82
37064;BME280;23211;53.912;9.138;2022-09-01T01:24:46;102474.91;;;20.10;41.83
37064;BME280;23211;53.912;9.138;2022-09-01T01:27:34;102474.94;;;20.05;42.13
37064;BME280;23211;53.912;9.138;2022-09-01T01:30:20;102471.41;;;20.00;42.00
37064;BME280;23211;53.912;9.138;2022-09-01T01:33:07;102473.59;;;19.92;42.12
37064;BME280;23211;53.912;9.138;2022-09-01T01:35:53;102472.50;;;19.88;42.19
37064;BME280;23211;53.912;9.138;2022-09-01T01:38:45;102472.53;;;19.68;41.85
37064;BME280;23211;53.912;9.138;2022-09-01T01:41:32;102476.31;;;19.77;42.14
37064;BME280;23211;53.912;9.138;2022-09-01T01:44:22;102476.59;;;19.76;42.18
37064;BME280;23211;53.912;9.138;2022-09-01T01:47:12;102485.03;;;19.74;42.39
37064;BME280;23211;53.912;9.138;2022-09-01T01:49:58;102491.84;;;19.72;42.56
37064;BME280;23211;53.912;9.138;2022-09-01T01:52:44;102475.78;;;19.70;42.46
37064;BME280;23211;53.912;9.138;2022-09-01T01:55:30;102480.13;;;19.66;42.54
37064;BME280;23211;53.912;9.138;2022-09-01T01:58:20;102481.78;;;19.62;42.70
37064;BME280;23211;53.912;9.138;2022-09-01T02:01:07;102479.06;;;19.57;42.74
37064;BME280;23211;53.912;9.138;2022-09-01T02:03:57;102488.03;;;19.52;43.01
37064;BME280;23211;53.912;9.138;2022-09-01T02:06:43;102486.34;;;19.46;43.05
37064;BME280;23211;53.912;9.138;2022-09-01T02:09:33;102488.00;;;19.42;42.91
37064;BME280;23211;53.912;9.138;2022-09-01T02:12:19;102483.09;;;19.39;42.97
37064;BME280;23211;53.912;9.138;2022-09-01T02:15:08;102490.16;;;19.35;43.24
37064;BME280;23211;53.912;9.138;2022-09-01T02:17:57;102483.91;;;19.29;43.31
37064;BME280;23211;53.912;9.138;2022-09-01T02:20:46;102481.16;;;19.24;43.70
37064;BME280;23211;53.912;9.138;2022-09-01T02:23:32;102481.97;;;19.20;43.55
37064;BME280;23211;53.912;9.138;2022-09-01T02:26:18;102477.63;;;19.14;43.61
37064;BME280;23211;53.912;9.138;2022-09-01T02:29:12;102475.72;;;19.09;43.83
37064;BME280;23211;53.912;9.138;2022-09-01T02:32:03;102482.22;;;19.03;43.91
37064;BME280;23211;53.912;9.138;2022-09-01T02:34:50;102473.78;;;18.99;43.99
37064;BME280;23211;53.912;9.138;2022-09-01T02:37:38;102471.88;;;18.95;44.28
37064;BME280;23211;53.912;9.138;2022-09-01T02:40:24;102470.50;;;18.92;44.19
37064;BME280;23211;53.912;9.138;2022-09-01T02:43:11;102475.38;;;18.90;44.33
37064;BME280;23211;53.912;9.138;2022-09-01T02:46:00;102475.91;;;18.87;44.25
37064;BME280;23211;53.912;9.138;2022-09-01T02:48:46;102471.56;;;18.86;44.41
37064;BME280;23211;53.912;9.138;2022-09-01T02:51:36;102461.25;;;18.83;44.42
37064;BME280;23211;53.912;9.138;2022-09-01T02:54:24;102464.50;;;18.80;44.40
37064;BME280;23211;53.912;9.138;2022-09-01T02:57:11;102462.84;;;18.79;44.55
37064;BME280;23211;53.912;9.138;2022-09-01T02:59:57;102454.16;;;18.77;44.59
37064;BME280;23211;53.912;9.138;2022-09-01T03:02:47;102460.94;;;18.75;44.70
37064;BME280;23211;53.912;9.138;2022-09-01T03:05:33;102457.69;;;18.73;44.57
37064;BME280;23211;53.912;9.138;2022-09-01T03:08:23;102454.41;;;18.71;44.74
37064;BME280;23211;53.912;9.138;2022-09-01T03:11:09;102460.38;;;18.67;44.72
37064;BME280;23211;53.912;9.138;2022-09-01T03:13:56;102455.47;;;18.64;44.70
37064;BME280;23211;53.912;9.138;2022-09-01T03:16:42;102457.66;;;18.62;44.94
37064;BME280;23211;53.912;9.138;2022-09-01T03:19:28;102463.06;;;18.62;44.95
37064;BME280;23211;53.912;9.138;2022-09-01T03:22:19;102462.75;;;18.59;44.69
37064;BME280;23211;53.912;9.138;2022-09-01T03:25:06;102468.44;;;18.57;44.99
37064;BME280;23211;53.912;9.138;2022-09-01T03:27:52;102463.28;;;18.56;45.11
37064;BME280;23211;53.912;9.138;2022-09-01T03:30:44;102468.16;;;18.54;45.25
37064;BME280;23211;53.912;9.138;2022-09-01T03:33:31;102470.06;;;18.53;45.10
37064;BME280;23211;53.912;9.138;2022-09-01T03:36:18;102463.00;;;18.52;45.32
37064;BME280;23211;53.912;9.138;2022-09-01T03:39:05;102466.78;;;18.51;45.32
37064;BME280;23211;53.912;9.138;2022-09-01T03:41:54;102468.97;;;18.49;45.46
37064;BME280;23211;53.912;9.138;2022-09-01T03:44:42;102461.06;;;18.48;45.43
37064;BME280;23211;53.912;9.138;2022-09-01T03:47:28;102455.66;;;18.48;45.45
37064;BME280;23211;53.912;9.138;2022-09-01T03:50:17;102457.56;;;18.47;45.33
37064;BME280;23211;53.912;9.138;2022-09-01T03:53:07;102456.72;;;18.47;45.35
37064;BME280;23211;53.912;9.138;2022-09-01T03:55:52;102454.84;;;18.47;45.24
37064;BME280;23211;53.912;9.138;2022-09-01T03:58:42;102452.13;;;18.47;45.29
37064;BME280;23211;53.912;9.138;2022-09-01T04:01:33;102445.06;;;18.46;45.42
37064;BME280;23211;53.912;9.138;2022-09-01T04:04:23;102457.81;;;18.46;45.13
37064;BME280;23211;53.912;9.138;2022-09-01T04:07:09;102456.19;;;18.45;45.28
37064;BME280;23211;53.912;9.138;2022-09-01T04:09:55;102459.97;;;18.44;45.27
37064;BME280;23211;53.912;9.138;2022-09-01T04:12:41;102448.56;;;18.42;45.35
37064;BME280;23211;53.912;9.138;2022-09-01T04:15:27;102451.53;;;18.40;45.34
37064;BME280;23211;53.912;9.138;2022-09-01T04:18:14;102456.16;;;18.40;45.41
37064;BME280;23211;53.912;9.138;2022-09-01T04:21:08;102451.81;;;18.39;45.37
37064;BME280;23211;53.912;9.138;2022-09-01T04:23:54;102456.69;;;18.36;45.23
37064;BME280;23211;53.912;9.138;2022-09-01T04:26:44;102464.53;;;18.33;45.47
37064;BME280;23211;53.912;9.138;2022-09-01T04:29:34;102466.97;;;18.29;45.60
37064;BME280;23211;53.912;9.138;2022-09-01T04:32:21;102456.91;;;18.25;45.54
37064;BME280;23211;53.912;9.138;2022-09-01T04:35:12;102459.59;;;18.20;45.97
37064;BME280;23211;53.912;9.138;2022-09-01T04:38:02;102463.91;;;18.16;45.89
37064;BME280;23211;53.912;9.138;2022-09-01T04:40:48;102468.22;;;18.12;46.31
37064;BME280;23211;53.912;9.138;2022-09-01T04:43:35;102469.56;;;18.09;46.45
37064;BME280;23211;53.912;9.138;2022-09-01T04:46:24;102463.56;;;18.07;46.62
37064;BME280;23211;53.912;9.138;2022-09-01T04:49:16;102460.31;;;18.05;46.70
37064;BME280;23211;53.912;9.138;2022-09-01T04:52:06;102465.19;;;18.03;46.83
37064;BME280;23211;53.912;9.138;2022-09-01T04:54:53;102461.91;;;18.01;46.98
37064;BME280;23211;53.912;9.138;2022-09-01T04:57:39;102461.09;;;18.00;47.17
37064;BME280;23211;53.912;9.138;2022-09-01T05:00:27;102457.81;;;17.98;47.25
37064;BME280;23211;53.912;9.138;2022-09-01T05:03:17;102464.31;;;17.97;47.36
37064;BME280;23211;53.912;9.138;2022-09-01T05:06:16;102470.81;;;17.96;47.47
37064;BME280;23211;53.912;9.138;2022-09-01T05:09:09;102463.78;;;17.95;47.61
37064;BME280;23211;53.912;9.138;2022-09-01T05:12:11;102464.03;;;17.94;47.84
37064;BME280;23211;53.912;9.138;2022-09-01T05:14:59;102465.94;;;17.93;47.87
37064;BME280;23211;53.912;9.138;2022-09-01T05:17:48;102479.47;;;17.93;47.99
37064;BME280;23211;53.912;9.138;2022-09-01T05:20:38;102465.38;;;17.91;48.41
37064;BME280;23211;53.912;9.138;2022-09-01T05:23:26;102466.19;;;17.92;48.44
37064;BME280;23211;53.912;9.138;2022-09-01T05:26:17;102467.53;;;17.89;48.59
37064;BME280;23211;53.912;9.138;2022-09-01T05:29:05;102465.38;;;17.91;48.83
37064;BME280;23211;53.912;9.138;2022-09-01T05:31:58;102481.38;;;17.93;48.86
37064;BME280;23211;53.912;9.138;2022-09-01T05:34:47;102472.97;;;17.94;49.02
37064;BME280;23211;53.912;9.138;2022-09-01T05:37:35;102479.53;;;17.98;49.18
37064;BME280;23211;53.912;9.138;2022-09-01T05:40:24;102474.41;;;18.02;49.31
37064;BME280;23211;53.912;9.138;2022-09-01T05:43:12;102473.88;;;18.05;49.19
37064;BME280;23211;53.912;9.138;2022-09-01T05:45:58;102471.44;;;18.09;49.47
37064;BME280;23211;53.912;9.138;2022-09-01T05:48:46;102470.66;;;18.13;49.53
37064;BME280;23211;53.912;9.138;2022-09-01T05:51:34;102473.94;;;18.15;49.67
37064;BME280;23211;53.912;9.138;2022-09-01T05:54:23;102476.41;;;18.22;49.78
37064;BME280;23211;53.912;9.138;2022-09-01T05:57:10;102482.94;;;18.26;49.79
37064;BME280;23211;53.912;9.138;2022-09-01T05:59:56;102481.09;;;18.31;49.83
37064;BME280;23211;53.912;9.138;2022-09-01T06:02:44;102483.56;;;18.38;50.05
37064;BME280;23211;53.912;9.138;2022-09-01T06:05:36;102487.94;;;18.44;50.15
37064;BME280;23211;53.912;9.138;2022-09-01T06:08:26;102489.06;;;18.53;50.16
37064;BME280;23211;53.912;9.138;2022-09-01T06:11:14;102490.22;;;18.62;50.16
37064;BME280;23211;53.912;9.138;2022-09-01T06:14:03;102492.16;;;18.72;50.25
37064;BME280;23211;53.912;9.138;2022-09-01T06:16:50;102482.13;;;18.78;50.44
37064;BME280;23211;53.912;9.138;2022-09-01T06:19:39;102481.06;;;18.84;50.55
37064;BME280;23211;53.912;9.138;2022-09-01T06:22:26;102487.06;;;18.91;50.72
37064;BME280;23211;53.912;9.138;2022-09-01T06:25:14;102488.44;;;18.98;50.65
37064;BME280;23211;53.912;9.138;2022-09-01T06:28:05;102491.72;;;19.06;50.72
37064;BME280;23211;53.912;9.138;2022-09-01T06:30:54;102486.03;;;19.17;50.77
37064;BME280;23211;53.912;9.138;2022-09-01T06:33:42;102482.81;;;19.25;50.71
37064;BME280;23211;53.912;9.138;2022-09-01T06:36:29;102482.81;;;19.36;50.84
37064;BME280;23211;53.912;9.138;2022-09-01T06:39:17;102489.06;;;19.46;50.92
37064;BME280;23211;53.912;9.138;2022-09-01T06:42:08;102487.22;;;19.57;50.83
37064;BME280;23211;53.912;9.138;2022-09-01T06:45:06;102491.03;;;19.71;51.02
37064;BME280;23211;53.912;9.138;2022-09-01T06:47:55;102495.09;;;19.84;50.96
37064;BME280;23211;53.912;9.138;2022-09-01T06:50:42;102495.34;;;19.98;50.50
37064;BME280;23211;53.912;9.138;2022-09-01T06:53:29;102504.59;;;20.12;50.71
37064;BME280;23211;53.912;9.138;2022-09-01T06:56:18;102492.59;;;20.23;50.43
37064;BME280;23211;53.912;9.138;2022-09-01T06:59:04;102498.00;;;20.33;50.29
37064;BME280;23211;53.912;9.138;2022-09-01T07:01:54;102503.97;;;20.45;50.34
37064;BME280;23211;53.912;9.138;2022-09-01T07:04:49;102509.94;;;20.57;50.36
37064;BME280;23211;53.912;9.138;2022-09-01T07:07:36;102506.09;;;20.69;50.16
37064;BME280;23211;53.912;9.138;2022-09-01T07:10:49;102499.50;;;20.80;49.97
37064;BME280;23211;53.912;9.138;2022-09-01T07:13:37;102504.66;;;20.91;49.70
37064;BME280;23211;53.912;9.138;2022-09-01T07:16:25;102502.69;;;21.02;49.72
37064;BME280;23211;53.912;9.138;2022-09-01T07:19:11;102502.34;;;21.14;49.48
37064;BME280;23211;53.912;9.138;2022-09-01T07:22:14;102506.94;;;21.23;49.21
37064;BME280;23211;53.912;9.138;2022-09-01T07:25:04;102504.69;;;21.36;48.77
37064;BME280;23211;53.912;9.138;2022-09-01T07:28:10;102512.50;;;21.47;48.57
37064;BME280;23211;53.912;9.138;2022-09-01T07:30:58;102510.81;;;21.57;48.45
37064;BME280;23211;53.912;9.138;2022-09-01T07:33:46;102509.63;;;21.68;48.22
37064;BME280;23211;53.912;9.138;2022-09-01T07:36:35;102508.69;;;21.82;48.01
37064;BME280;23211;53.912;9.138;2022-09-01T07:39:22;102509.09;;;21.95;48.00
37064;BME280;23211;53.912;9.138;2022-09-01T07:42:27;102519.91;;;22.10;47.58
37064;BME280;23211;53.912;9.138;2022-09-01T07:45:35;102511.03;;;22.23;47.27
37064;BME280;23211;53.912;9.138;2022-09-01T07:48:26;102509.81;;;22.34;46.73
37064;BME280;23211;53.912;9.138;2022-09-01T07:51:13;102518.94;;;22.48;46.67
37064;BME280;23211;53.912;9.138;2022-09-01T07:54:04;102517.44;;;22.61;46.35
37064;BME280;23211;53.912;9.138;2022-09-01T07:56:50;102515.63;;;22.75;46.14
37064;BME280;23211;53.912;9.138;2022-09-01T07:59:37;102515.53;;;22.86;45.43
37064;BME280;23211;53.912;9.138;2022-09-01T08:02:32;102515.38;;;22.96;44.93
37064;BME280;23211;53.912;9.138;2022-09-01T08:05:18;102522.13;;;23.03;44.42
37064;BME280;23211;53.912;9.138;2022-09-01T08:08:07;102526.91;;;23.11;44.33
37064;BME280;23211;53.912;9.138;2022-09-01T08:10:52;102521.59;;;23.20;44.32
37064;BME280;23211;53.912;9.138;2022-09-01T08:13:38;102522.84;;;23.28;43.83
37064;BME280;23211;53.912;9.138;2022-09-01T08:16:26;102532.31;;;23.35;43.88
37064;BME280;23211;53.912;9.138;2022-09-01T08:19:13;102523.97;;;23.45;43.84
37064;BME280;23211;53.912;9.138;2022-09-01T08:22:35;102525.22;;;23.53;43.69
37064;BME280;23211;53.912;9.138;2022-09-01T08:25:33;102526.47;;;23.61;43.17
37064;BME280;23211;53.912;9.138;2022-09-01T08:28:19;102531.88;;;23.66;43.26
37064;BME280;23211;53.912;9.138;2022-09-01T08:31:07;102533.94;;;23.74;42.80
37064;BME280;23211;53.912;9.138;2022-09-01T08:33:53;102530.00;;;23.80;43.05
37064;BME280;23211;53.912;9.138;2022-09-01T08:36:40;102530.13;;;23.89;42.86
37064;BME280;23211;53.912;9.138;2022-09-01T08:39:26;102530.25;;;23.97;42.79
37064;BME280;23211;53.912;9.138;2022-09-01T08:43:01;102523.25;;;24.05;42.44
37064;BME280;23211;53.912;9.138;2022-09-01T08:48:36;102522.97;;;24.20;42.04
37064;BME280;23211;53.912;9.138;2022-09-01T08:51:31;102521.41;;;24.33;42.07
37064;BME280;23211;53.912;9.138;2022-09-01T08:54:39;102516.13;;;24.36;41.59
37064;BME280;23211;53.912;9.138;2022-09-01T08:57:35;102523.63;;;24.45;41.73
37064;BME280;23211;53.912;9.138;2022-09-01T09:00:42;102522.63;;;24.54;41.79
37064;BME280;23211;53.912;9.138;2022-09-01T09:06:41;102529.09;;;24.72;41.10
37064;BME280;23211;53.912;9.138;2022-09-01T09:09:49;102524.53;;;24.81;41.06
37064;BME280;23211;53.912;9.138;2022-09-01T09:15:46;102523.00;;;25.02;40.48
37064;BME280;23211;53.912;9.138;2022-09-01T09:18:50;102512.41;;;25.10;40.49
37064;BME280;23211;53.912;9.138;2022-09-01T09:21:45;102515.44;;;25.22;40.11
37064;BME280;23211;53.912;9.138;2022-09-01T09:24:41;102514.19;;;25.28;39.90
37064;BME280;23211;53.912;9.138;2022-09-01T09:27:40;102500.34;;;25.33;39.63
37064;BME280;23211;53.912;9.138;2022-09-01T09:30:27;102506.84;;;25.37;38.93
37064;BME280;23211;53.912;9.138;2022-09-01T09:33:36;102514.56;;;25.35;39.13
37064;BME280;23211;53.912;9.138;2022-09-01T09:36:31;102503.47;;;25.40;38.36
37064;BME280;23211;53.912;9.138;2022-09-01T09:39:17;102508.22;;;25.48;38.52
37064;BME280;23211;53.912;9.138;2022-09-01T09:42:05;102501.47;;;25.54;38.62
37064;BME280;23211;53.912;9.138;2022-09-01T09:44:54;102507.03;;;25.63;38.53
37064;BME280;23211;53.912;9.138;2022-09-01T09:47:43;102504.38;;;25.72;38.42
37064;BME280;23211;53.912;9.138;2022-09-01T09:53:27;102495.00;;;25.73;37.79
37064;BME280;23211;53.912;9.138;2022-09-01T09:59:00;102488.25;;;25.79;37.52
37064;BME280;23211;53.912;9.138;2022-09-01T10:01:46;102486.31;;;25.79;37.39
37064;BME280;23211;53.912;9.138;2022-09-01T10:04:37;102482.75;;;25.79;37.16
37064;BME280;23211;53.912;9.138;2022-09-01T10:07:35;102486.13;;;25.76;37.04
37064;BME280;23211;53.912;9.138;2022-09-01T10:13:21;102479.53;;;25.77;36.71
37064;BME280;23211;53.912;9.138;2022-09-01T10:16:20;102471.41;;;25.72;36.60
37064;BME280;23211;53.912;9.138;2022-09-01T10:19:12;102474.16;;;25.72;36.27
37064;BME280;23211;53.912;9.138;2022-09-01T10:21:58;102473.03;;;25.73;36.41
37064;BME280;23211;53.912;9.138;2022-09-01T10:24:44;102469.47;;;25.72;35.98
37064;BME280;23211;53.912;9.138;2022-09-01T10:27:34;102469.78;;;25.70;36.03
37064;BME280;23211;53.912;9.138;2022-09-01T10:30:21;102475.09;;;25.67;35.95
37064;BME280;23211;53.912;9.138;2022-09-01T10:33:08;102468.50;;;25.68;35.82
37064;BME280;23211;53.912;9.138;2022-09-01T10:35:54;102466.25;;;25.70;35.66
37064;BME280;23211;53.912;9.138;2022-09-01T10:38:41;102480.66;;;25.76;35.49
37064;BME280;23211;53.912;9.138;2022-09-01T10:41:44;102464.00;;;25.72;35.63
37064;BME280;23211;53.912;9.138;2022-09-01T10:44:37;102464.03;;;25.81;35.58
37064;BME280;23211;53.912;9.138;2022-09-01T10:47:39;102469.22;;;25.82;35.17
37064;BME280;23211;53.912;9.138;2022-09-01T10:50:29;102463.41;;;25.84;35.25
37064;BME280;23211;53.912;9.138;2022-09-01T10:56:46;102465.28;;;25.75;35.01
37064;BME280;23211;53.912;9.138;2022-09-01T10:59:33;102466.16;;;25.84;35.13
37064;BME280;23211;53.912;9.138;2022-09-01T11:02:19;102461.34;;;25.89;34.86
37064;BME280;23211;53.912;9.138;2022-09-01T11:07:51;102449.78;;;26.01;34.88
37064;BME280;23211;53.912;9.138;2022-09-01T11:13:48;102452.44;;;26.15;34.65
37064;BME280;23211;53.912;9.138;2022-09-01T11:16:40;102447.59;;;26.20;34.43
37064;BME280;23211;53.912;9.138;2022-09-01T11:25:45;102448.00;;;26.45;34.41
37064;BME280;23211;53.912;9.138;2022-09-01T11:28:37;102440.59;;;26.54;34.42
37064;BME280;23211;53.912;9.138;2022-09-01T11:31:37;102448.22;;;26.65;33.90
37064;BME280;23211;53.912;9.138;2022-09-01T11:34:26;102440.31;;;26.81;33.56
37064;BME280;23211;53.912;9.138;2022-09-01T11:37:14;102440.78;;;26.92;33.69
37064;BME280;23211;53.912;9.138;2022-09-01T11:40:03;102423.66;;;27.04;33.51
37064;BME280;23211;53.912;9.138;2022-09-01T11:42:53;102429.66;;;27.14;33.43
37064;BME280;23211;53.912;9.138;2022-09-01T11:46:14;102421.22;;;27.19;33.09
37064;BME280;23211;53.912;9.138;2022-09-01T11:49:06;102423.31;;;27.31;33.38
37064;BME280;23211;53.912;9.138;2022-09-01T11:51:54;102421.69;;;27.39;32.76
37064;BME280;23211;53.912;9.138;2022-09-01T11:54:42;102412.44;;;27.43;32.54
37064;BME280;23211;53.912;9.138;2022-09-01T11:57:33;102421.66;;;27.47;32.14
37064;BME280;23211;53.912;9.138;2022-09-01T12:00:35;102420.53;;;27.48;32.22
37064;BME280;23211;53.912;9.138;2022-09-01T12:03:27;102421.81;;;27.51;31.73
37064;BME280;23211;53.912;9.138;2022-09-01T12:06:20;102420.53;;;27.48;31.75
37064;BME280;23211;53.912;9.138;2022-09-01T12:09:07;102416.16;;;27.47;31.73
37064;BME280;23211;53.912;9.138;2022-09-01T12:11:53;102418.91;;;27.47;31.99
37064;BME280;23211;53.912;9.138;2022-09-01T12:14:38;102410.50;;;27.44;32.01
37064;BME280;23211;53.912;9.138;2022-09-01T12:17:24;102413.56;;;27.42;31.97
37064;BME280;23211;53.912;9.138;2022-09-01T12:20:30;102420.22;;;27.33;32.37
37064;BME280;23211;53.912;9.138;2022-09-01T12:23:23;102415.06;;;27.31;32.45
37064;BME280;23211;53.912;9.138;2022-09-01T12:26:25;102406.97;;;27.26;32.18
37064;BME280;23211;53.912;9.138;2022-09-01T12:29:12;102398.53;;;27.31;32.35
37064;BME280;23211;53.912;9.138;2022-09-01T12:32:01;102408.91;;;27.34;32.70
37064;BME280;23211;53.912;9.138;2022-09-01T12:35:02;102408.09;;;27.34;32.53
37064;BME280;23211;53.912;9.138;2022-09-01T12:37:48;102399.19;;;27.37;32.88
37064;BME280;23211;53.912;9.138;2022-09-01T12:40:35;102407.75;;;27.35;32.73
37064;BME280;23211;53.912;9.138;2022-09-01T12:43:38;102396.59;;;27.32;32.86
37064;BME280;23211;53.912;9.138;2022-09-01T12:46:41;102395.47;;;27.33;32.57
37064;BME280;23211;53.912;9.138;2022-09-01T12:49:44;102389.63;;;27.34;32.27
37064;BME280;23211;53.912;9.138;2022-09-01T12:52:34;102392.19;;;27.39;32.45
37064;BME280;23211;53.912;9.138;2022-09-01T12:55:22;102390.25;;;27.40;32.00
37064;BME280;23211;53.912;9.138;2022-09-01T12:58:09;102381.66;;;27.41;31.88
37064;BME280;23211;53.912;9.138;2022-09-01T13:01:06;102378.59;;;27.43;31.66
37064;BME280;23211;53.912;9.138;2022-09-01T13:04:29;102384.25;;;27.46;31.74
37064;BME280;23211;53.912;9.138;2022-09-01T13:07:18;102380.81;;;27.58;30.98
37064;BME280;23211;53.912;9.138;2022-09-01T13:10:05;102379.19;;;27.66;30.87
37064;BME280;23211;53.912;9.138;2022-09-01T13:12:51;102379.97;;;27.75;31.10
37064;BME280;23211;53.912;9.138;2022-09-01T13:15:39;102380.78;;;27.75;31.13
37064;BME280;23211;53.912;9.138;2022-09-01T13:18:26;102381.91;;;27.74;31.00
37064;BME280;23211;53.912;9.138;2022-09-01T13:21:13;102385.97;;;27.68;30.99
37064;BME280;23211;53.912;9.138;2022-09-01T13:24:08;102385.50;;;27.57;31.20
37064;BME280;23211;53.912;9.138;2022-09-01T13:26:54;102381.47;;;27.55;31.11
37064;BME280;23211;53.912;9.138;2022-09-01T13:29:41;102383.59;;;27.49;31.17
37064;BME280;23211;53.912;9.138;2022-09-01T13:32:27;102383.78;;;27.44;31.23
37064;BME280;23211;53.912;9.138;2022-09-01T13:35:15;102377.78;;;27.42;31.35
37064;BME280;23211;53.912;9.138;2022-09-01T13:38:01;102382.00;;;27.40;31.13
37064;BME280;23211;53.912;9.138;2022-09-01T13:40:48;102376.00;;;27.38;30.71
37064;BME280;23211;53.912;9.138;2022-09-01T13:43:34;102370.34;;;27.34;31.13
37064;BME280;23211;53.912;9.138;2022-09-01T13:46:20;102379.75;;;27.33;31.17
37064;BME280;23211;53.912;9.138;2022-09-01T13:49:06;102371.16;;;27.35;31.15
37064;BME280;23211;53.912;9.138;2022-09-01T13:51:52;102369.38;;;27.39;31.21
37064;BME280;23211;53.912;9.138;2022-09-01T13:54:38;102361.25;;;27.42;31.41
37064;BME280;23211;53.912;9.138;2022-09-01T13:57:24;102371.94;;;27.44;31.08
37064;BME280;23211;53.912;9.138;2022-09-01T14:00:12;102361.25;;;27.42;30.94
37064;BME280;23211;53.912;9.138;2022-09-01T14:03:04;102356.91;;;27.41;31.43
37064;BME280;23211;53.912;9.138;2022-09-01T14:05:51;102358.19;;;27.44;31.23
37064;BME280;23211;53.912;9.138;2022-09-01T14:08:37;102357.84;;;27.45;31.14
37064;BME280;23211;53.912;9.138;2022-09-01T14:11:23;102347.66;;;27.46;31.25
37064;BME280;23211;53.912;9.138;2022-09-01T14:14:10;102348.78;;;27.45;31.22
37064;BME280;23211;53.912;9.138;2022-09-01T14:16:55;102346.84;;;27.45;31.47
37064;BME280;23211;53.912;9.138;2022-09-01T14:19:41;102341.50;;;27.49;31.08
37064;BME280;23211;53.912;9.138;2022-09-01T14:22:27;102341.97;;;27.51;31.46
37064;BME280;23211;53.912;9.138;2022-09-01T14:25:14;102332.38;;;27.57;31.54
37064;BME280;23211;53.912;9.138;2022-09-01T14:28:01;102336.13;;;27.61;31.30
37064;BME280;23211;53.912;9.138;2022-09-01T14:30:49;102332.38;;;27.66;31.07
37064;BME280;23211;53.912;9.138;2022-09-01T14:33:36;102332.22;;;27.62;30.81
37064;BME280;23211;53.912;9.138;2022-09-01T14:36:24;102335.94;;;27.57;31.07
37064;BME280;23211;53.912;9.138;2022-09-01T14:39:10;102337.25;;;27.51;30.94
37064;BME280;23211;53.912;9.138;2022-09-01T14:41:56;102327.09;;;27.43;30.67
37064;BME280;23211;53.912;9.138;2022-09-01T14:44:42;102325.19;;;27.35;30.71
37064;BME280;23211;53.912;9.138;2022-09-01T14:47:28;102318.56;;;27.27;30.81
37064;BME280;23211;53.912;9.138;2022-09-01T14:50:15;102319.56;;;27.23;31.01
37064;BME280;23211;53.912;9.138;2022-09-01T14:53:01;102318.94;;;27.17;30.86
37064;BME280;23211;53.912;9.138;2022-09-01T14:55:47;102321.03;;;27.12;30.93
37064;BME280;23211;53.912;9.138;2022-09-01T14:58:33;102308.28;;;27.07;30.94
37064;BME280;23211;53.912;9.138;2022-09-01T15:01:20;102303.75;;;27.03;30.58
37064;BME280;23211;53.912;9.138;2022-09-01T15:04:07;102307.97;;;27.00;30.64
37064;BME280;23211;53.912;9.138;2022-09-01T15:06:53;102304.06;;;27.01;30.50
37064;BME280;23211;53.912;9.138;2022-09-01T15:09:39;102300.03;;;26.99;30.48
37064;BME280;23211;53.912;9.138;2022-09-01T15:12:25;102291.47;;;27.00;30.38
37064;BME280;23211;53.912;9.138;2022-09-01T15:15:16;102296.31;;;26.86;31.22
37064;BME280;23211;53.912;9.138;2022-09-01T15:18:02;102286.75;;;27.09;30.90
37064;BME280;23211;53.912;9.138;2022-09-01T15:20:48;102284.09;;;27.21;30.67